Norfolk, Virginia
Current Conditions -  °F | °C
As of 11:51 PM on Sunday 23 Nov 2014 (Local Time) from KORF Reporting Station
Moderate Rain Moderate Rain  
Wind Chill: 64°   Ceiling: 3900
Heat Index: 64°   Visibility: 5mi
Dew Point: 61°   Wind: 17mph
Humidity: 90%   Direction: 170°S
Pressure: 29.86"   Gusts: 28mph
Location:  36.85°N, 76.28°W
Report Text: KORF 240451Z AUTO 17015G24KT 5SM RA BR SCT016 SCT030 OVC039 18/16 A2986 RMK AO2 RAB0354 SLP111 P0013 T01780161 401830011 TSNO
Loading
Personal Weather Stations






























Interactive Weather Map New forecast layout! Learn more

10-Day Weather Forecast

Advertisements
Track Severe Weather on mobile